Onde está Banco en Portugal?

 

Banco está situado na região Lisboa em Portugal!

Buscar o nome de uma cidade:

Banco Morales, Banchhatar, Bancroft Municipal Airport, Banchhanagar, Bance

Aqui você vai encontrar a localização de Banco em um mapa.
Para ver como ele atualmente parece, abaixo estão algumas fotos da região, com webcams online.
Você também pode encontrar a distância para as principais cidades da região e de cidades do resto do Portugal.

Cidades do mundo
Cidades em Portugal que também são encontradas em outros países do mundo.


Onde está Banco no mapa?




Webcams perto Banco

Benavente › North-East: Santarém - AIrport, METAR: BENAV 180005Z 36004KT 17/14 Q1015.


Benavente › North-East: Santarém - AIrport, METAR: BENAV 180005Z 36004KT 17/14 Q1015 - Dia
Actual
Benavente › North-East: Santarém - AIrport, METAR: BENAV 180005Z 36004KT 17/14 Q1015 - Actual

Parque das Nacoes › South: Rua Vasco da Gama.


Parque das Nacoes › South: Rua Vasco da Gama - Dia
Actual
Parque das Nacoes › South: Rua Vasco da Gama - Actual

Lisbon › North: Ponte Vasco da Gama.


Lisbon › North: Ponte Vasco da Gama - Dia
Actual
Lisbon › North: Ponte Vasco da Gama - Actual

Webcams provided by windy.comadd a webcam


Distâncias

Onde está Banco em relação a outros lugares?

Top 10 cidades em Lisboa e distância de Banco.

Cidade#Populaçãokmmilhas
Lisbon15177984729
Amadora21788564729
Queluz31033984830
Loures4662303723
Rio de Mouro5546955132
Odivelas6546234226
São Domingos de Rana7467175836
Cascais8364366339
Alcabideche9333156037
Póvoa de Santa Iria10289002918

Top 10 cidades em Portugal e distância de Banco.

Cidade # Populaçãokmmilhas
Lisbon15177984729
Porto2249630230143
Amadora31788564729
Braga4121393277172
Setúbal51171096339
Coimbra610658013081
Queluz71033984830
Funchal8980411017632
Vila Nova de Gaia970810229142
Loures10662303723


Info

Estatística e Geografia

Portugal é composta de 15299 cidades em 20 regiões.

A região de Lisboa tem 1032 cidades.

Banco é o número 208 na região Lisboa.

A cidade é o número 1976 na Portugal.

Onde está Banco en Portugal?